クライストチャーチ の空港の天気 - METARとTAF

クライストチャーチ国際空港 ( NZCH / CHC ) - ニュージーランド クライストチャーチ
飛行場実況気象(Metar)
観測時間01/20 00:00 NZDT (01/19 11:00 UTC)
風向・風速西 7m/s 瞬間風速13m/s
視程10km以上
天気現象
なし
気温22℃
湿度33%
気圧993hPa
METARNZCH 191100Z AUTO 28014G25KT 250V320 9999 NCD 22/05 Q0993 BECMG 26010KT
過去の天気等 Google飛行場航空写真 Wunderground天気予報

過去48時間のMETAR

飛行場予報(TAF)
発表時間: 1/19 21:26 NZDT (1/19 08:26 UTC)
予報対象時間: 19日21時 NZDT ~ 20日19時 NZDT
風向・風速西北西 10m/s 瞬間風速 15m/s
視程10km以上
なし
20日1時 NZDT ~ 20日3時 NZDT に徐々に
風向・風速西 5m/s
20日6時 NZDT ~ 20日8時 NZDT に徐々に
風向・風速不定 1m/s
20日13時 NZDT ~ 20日15時 NZDT に徐々に
風向・風速北北東 6m/s
20日17時 NZDT ~ 20日19時 NZDT に徐々に
風向・風速北北西 8m/s 瞬間風速 13m/s
TAF AMD NZCH 190826Z 1908/2006 30020G30KT CAVOK
BECMG 1912/1914 26010KT
BECMG 1917/1919 VRB02KT
BECMG 2000/2002 02012KT
BECMG 2004/2006 33015G25KT